createdAt,value
2019-05-29T00:02:40.984Z,3.45
2019-05-29T00:05:23.648Z,3.80
2019-05-29T00:08:06.716Z,4.03
2019-05-29T00:10:49.618Z,3.98
2019-05-29T00:13:32.451Z,3.77
2019-05-29T00:16:15.126Z,4.12
2019-05-29T00:18:58.676Z,3.72
2019-05-29T00:21:41.429Z,3.47
2019-05-29T00:24:25.218Z,3.55
2019-05-29T00:27:08.086Z,3.83
2019-05-29T00:29:51.055Z,3.45
2019-05-29T00:32:33.934Z,8.28
2019-05-29T00:35:17.374Z,8.48
2019-05-29T00:38:00.124Z,5.70
2019-05-29T00:40:43.080Z,5.37
2019-05-29T00:43:25.656Z,4.53
2019-05-29T00:46:09.316Z,4.83
2019-05-29T00:48:52.151Z,4.90
2019-05-29T00:51:35.062Z,4.77
2019-05-29T00:54:18.509Z,4.63
2019-05-29T00:57:02.218Z,4.30
2019-05-29T00:59:44.931Z,3.80
2019-05-29T01:02:27.963Z,4.03
2019-05-29T01:05:11.891Z,3.77
2019-05-29T01:07:55.092Z,3.90
2019-05-29T01:10:37.863Z,4.13
2019-05-29T01:13:21.268Z,3.97
2019-05-29T01:16:04.236Z,3.20
2019-05-29T01:18:47.586Z,3.90
2019-05-29T01:21:30.713Z,3.53
2019-05-29T01:24:14.202Z,4.07
2019-05-29T01:26:57.933Z,3.87
2019-05-29T01:29:41.188Z,4.03
2019-05-29T01:32:24.075Z,3.90
2019-05-29T01:35:06.943Z,4.13
2019-05-29T01:37:49.742Z,4.30
2019-05-29T01:40:32.586Z,4.50
2019-05-29T01:43:15.436Z,3.90
2019-05-29T01:45:58.760Z,4.57
2019-05-29T01:48:41.421Z,4.53
2019-05-29T01:51:24.486Z,4.33
2019-05-29T01:54:07.153Z,4.27
2019-05-29T01:56:50.192Z,5.60
2019-05-29T01:59:32.819Z,5.90
2019-05-29T02:02:16.172Z,5.33
2019-05-29T02:04:58.823Z,5.47
2019-05-29T02:07:41.604Z,5.10
2019-05-29T02:10:24.432Z,5.17
2019-05-29T02:13:07.295Z,5.50
2019-05-29T02:15:50.084Z,4.50
2019-05-29T02:18:33.190Z,4.20
2019-05-29T02:21:16.074Z,4.30
2019-05-29T02:23:59.462Z,4.27
2019-05-29T02:26:43.065Z,4.07
2019-05-29T02:29:26.951Z,3.90
2019-05-29T02:32:09.643Z,4.07
2019-05-29T02:34:53.031Z,3.67
2019-05-29T02:37:35.765Z,3.90
2019-05-29T02:40:20.941Z,3.87
2019-05-29T02:43:03.639Z,3.43
2019-05-29T02:45:54.236Z,3.60
2019-05-29T02:48:31.814Z,4.70
2019-05-29T02:51:15.109Z,3.97
2019-05-29T02:53:58.021Z,3.50
2019-05-29T02:56:42.598Z,3.53
2019-05-29T02:59:25.660Z,3.93
2019-05-29T03:02:09.747Z,4.07
2019-05-29T03:04:52.345Z,3.70
2019-05-29T03:07:36.045Z,3.37
2019-05-29T03:10:18.761Z,2.93
2019-05-29T03:13:01.771Z,3.00
2019-05-29T03:15:44.441Z,3.00
2019-05-29T03:18:28.095Z,3.83
2019-05-29T03:21:10.631Z,3.37
2019-05-29T03:23:53.528Z,2.87
2019-05-29T03:26:38.413Z,3.33
2019-05-29T03:29:21.515Z,3.30
2019-05-29T03:32:04.376Z,3.23
2019-05-29T03:34:48.070Z,4.20
2019-05-29T03:37:32.343Z,3.13
2019-05-29T03:40:15.759Z,3.03
2019-05-29T03:42:58.296Z,3.87
2019-05-29T03:45:41.380Z,2.90
2019-05-29T03:48:25.877Z,3.17
2019-05-29T03:51:08.940Z,2.70
2019-05-29T03:53:51.716Z,3.80
2019-05-29T03:56:34.928Z,2.43
2019-05-29T03:59:17.657Z,2.70
2019-05-29T04:02:00.609Z,2.50
2019-05-29T04:04:43.348Z,2.47
2019-05-29T04:07:26.878Z,2.90
2019-05-29T04:10:10.808Z,3.10
2019-05-29T04:12:54.107Z,2.70
2019-05-29T04:15:39.891Z,2.43
2019-05-29T04:18:23.493Z,2.50
2019-05-29T04:21:07.476Z,2.60
2019-05-29T04:23:52.424Z,2.40
2019-05-29T04:26:38.302Z,2.50
2019-05-29T04:29:25.874Z,2.53
2019-05-29T04:32:08.771Z,3.03
2019-05-29T04:34:51.580Z,2.77
2019-05-29T04:37:34.402Z,3.13
2019-05-29T04:40:17.396Z,2.50
2019-05-29T04:43:00.522Z,2.57
2019-05-29T04:45:43.523Z,2.70
2019-05-29T04:48:26.238Z,2.97
2019-05-29T04:51:09.272Z,2.60
2019-05-29T04:53:52.027Z,2.50
2019-05-29T04:56:35.180Z,2.70
2019-05-29T04:59:17.872Z,2.97
2019-05-29T05:02:01.083Z,2.90
2019-05-29T05:04:43.788Z,3.00
2019-05-29T05:07:27.008Z,2.70
2019-05-29T05:10:09.918Z,2.60
2019-05-29T05:12:53.014Z,2.37
2019-05-29T05:15:37.952Z,2.97
2019-05-29T05:18:21.413Z,3.00
2019-05-29T05:21:04.153Z,2.63
2019-05-29T05:23:47.176Z,2.97
2019-05-29T05:26:30.043Z,2.83
2019-05-29T05:29:13.542Z,3.07
2019-05-29T05:31:56.285Z,2.60
2019-05-29T05:34:39.185Z,3.03
2019-05-29T05:37:21.951Z,3.03
2019-05-29T05:40:04.859Z,3.10
2019-05-29T05:42:47.616Z,2.60
2019-05-29T05:45:31.014Z,2.90
2019-05-29T05:48:14.246Z,3.10
2019-05-29T05:50:57.166Z,3.03
2019-05-29T05:53:39.838Z,3.37
2019-05-29T05:56:22.763Z,3.07
2019-05-29T05:59:05.445Z,3.13
2019-05-29T06:01:48.279Z,2.77
2019-05-29T06:04:31.813Z,3.20
2019-05-29T06:07:14.814Z,4.43
2019-05-29T06:09:57.506Z,3.83
2019-05-29T06:12:40.902Z,3.73
2019-05-29T06:15:23.711Z,3.87
2019-05-29T06:18:20.605Z,3.97
2019-05-29T06:20:51.470Z,4.50
2019-05-29T06:23:34.775Z,4.30
2019-05-29T06:26:17.435Z,4.13
2019-05-29T06:29:00.536Z,4.77
2019-05-29T06:31:43.662Z,4.40
2019-05-29T06:34:26.662Z,5.53
2019-05-29T06:37:09.422Z,5.00
2019-05-29T06:39:52.495Z,4.37
2019-05-29T06:42:35.739Z,4.27
2019-05-29T06:45:20.676Z,4.00
2019-05-29T06:48:03.769Z,4.40
2019-05-29T06:50:47.856Z,4.17
2019-05-29T06:53:31.149Z,4.67
2019-05-29T06:56:14.370Z,5.00
2019-05-29T06:58:57.677Z,6.10
2019-05-29T07:01:41.746Z,4.97
2019-05-29T07:04:24.692Z,4.67
2019-05-29T07:07:07.988Z,4.83
2019-05-29T07:09:50.768Z,5.10
2019-05-29T07:12:33.651Z,4.63
2019-05-29T07:15:16.736Z,4.90
2019-05-29T07:17:59.709Z,4.70
2019-05-29T07:20:42.729Z,5.03
2019-05-29T07:23:25.705Z,5.87
2019-05-29T07:26:08.864Z,5.47
2019-05-29T07:29:06.601Z,5.47
2019-05-29T07:31:36.874Z,5.47
2019-05-29T07:34:20.979Z,5.87
2019-05-29T07:37:03.617Z,5.67
2019-05-29T07:39:47.666Z,5.37
2019-05-29T07:42:30.707Z,5.33
2019-05-29T07:45:13.925Z,5.80
2019-05-29T07:47:56.593Z,6.23
2019-05-29T07:50:40.083Z,5.53
2019-05-29T07:53:22.933Z,5.57
2019-05-29T07:56:19.683Z,5.67
2019-05-29T07:59:01.915Z,5.70
2019-05-29T08:01:36.384Z,5.50
2019-05-29T08:04:19.213Z,5.70
2019-05-29T08:07:03.267Z,6.00
2019-05-29T08:09:46.109Z,6.20
2019-05-29T08:12:29.197Z,5.37
2019-05-29T08:15:12.230Z,5.90
2019-05-29T08:17:55.569Z,6.67
2019-05-29T08:20:38.422Z,6.87
2019-05-29T08:23:21.456Z,6.90
2019-05-29T08:26:04.127Z,6.67
2019-05-29T08:28:47.082Z,6.60
2019-05-29T08:31:30.047Z,6.00
2019-05-29T08:34:12.963Z,5.40
2019-05-29T08:37:06.580Z,4.60
2019-05-29T08:39:41.154Z,3.90
2019-05-29T08:42:24.041Z,4.30
2019-05-29T08:45:07.033Z,4.00
2019-05-29T08:47:49.814Z,4.00
2019-05-29T08:50:33.087Z,4.27
2019-05-29T08:53:15.946Z,4.13
2019-05-29T08:55:59.001Z,4.47
2019-05-29T08:58:42.913Z,5.00
2019-05-29T09:01:26.264Z,4.47
2019-05-29T09:04:09.514Z,5.10
2019-05-29T09:06:53.503Z,4.80
2019-05-29T09:09:37.295Z,4.83
2019-05-29T09:12:20.636Z,4.70
2019-05-29T09:15:03.388Z,5.60
2019-05-29T09:17:46.449Z,4.73
2019-05-29T09:20:57.338Z,5.57
2019-05-29T09:23:14.923Z,5.93
2019-05-29T09:26:13.611Z,6.00
2019-05-29T09:28:42.251Z,5.70
2019-05-29T09:31:25.033Z,5.83
2019-05-29T09:34:08.061Z,5.97
2019-05-29T09:36:53.883Z,5.83
2019-05-29T09:39:35.768Z,5.37
2019-05-29T09:42:19.055Z,5.83
2019-05-29T09:45:02.823Z,6.90
2019-05-29T09:47:45.607Z,5.90
2019-05-29T09:50:46.489Z,6.33
2019-05-29T09:53:13.613Z,6.07
2019-05-29T09:55:57.850Z,6.50
2019-05-29T09:58:40.880Z,5.93
2019-05-29T10:01:25.101Z,5.30
2019-05-29T10:04:07.881Z,5.77
2019-05-29T10:06:50.891Z,5.90
2019-05-29T10:09:33.952Z,6.97
2019-05-29T10:12:16.970Z,6.10
2019-05-29T10:15:01.021Z,5.60
2019-05-29T10:17:45.256Z,5.97
2019-05-29T10:20:27.863Z,6.70
2019-05-29T10:23:10.851Z,6.20
2019-05-29T10:25:53.591Z,6.20
2019-05-29T10:28:50.115Z,6.03
2019-05-29T10:31:20.555Z,7.87
2019-05-29T10:34:03.535Z,7.00
2019-05-29T10:36:49.909Z,6.37
2019-05-29T10:39:30.856Z,6.23
2019-05-29T10:42:13.982Z,6.50
2019-05-29T10:44:56.794Z,6.23
2019-05-29T10:47:39.361Z,6.53
2019-05-29T10:50:22.585Z,6.63
2019-05-29T10:53:05.267Z,6.70
2019-05-29T10:55:48.603Z,7.60
2019-05-29T10:58:45.788Z,6.80
2019-05-29T11:01:15.922Z,6.90
2019-05-29T11:03:58.529Z,7.87
2019-05-29T11:06:41.453Z,6.20
2019-05-29T11:09:24.294Z,6.40
2019-05-29T11:12:07.506Z,6.93
2019-05-29T11:14:50.755Z,6.67
2019-05-29T11:17:33.769Z,7.27
2019-05-29T11:20:18.198Z,11.17
2019-05-29T11:23:01.288Z,7.80
2019-05-29T11:25:43.821Z,7.10
2019-05-29T11:28:26.708Z,7.23
2019-05-29T11:31:09.486Z,7.33
2019-05-29T11:33:53.061Z,7.20
2019-05-29T11:36:35.994Z,7.80
2019-05-29T11:39:19.109Z,8.37
2019-05-29T11:42:03.014Z,8.07
2019-05-29T11:44:46.401Z,8.43
2019-05-29T11:47:29.267Z,8.10
2019-05-29T11:50:19.662Z,9.40
2019-05-29T11:52:59.642Z,8.77
2019-05-29T11:55:42.550Z,9.00
2019-05-29T11:58:31.052Z,8.53
2019-05-29T12:01:09.705Z,9.40
2019-05-29T12:04:15.520Z,10.60
2019-05-29T12:06:37.244Z,9.77
2019-05-29T12:09:32.041Z,9.77
2019-05-29T12:12:04.278Z,10.17
2019-05-29T12:15:02.481Z,9.33
2019-05-29T12:17:31.850Z,9.30
2019-05-29T12:20:26.754Z,10.20
2019-05-29T12:23:18.617Z,9.27
2019-05-29T12:25:43.815Z,8.70
2019-05-29T12:28:26.861Z,8.70
2019-05-29T12:31:09.710Z,9.10
2019-05-29T12:33:52.989Z,8.83
2019-05-29T12:36:35.566Z,8.50
2019-05-29T12:39:18.722Z,9.10
2019-05-29T12:42:01.783Z,7.90
2019-05-29T12:44:46.033Z,8.53
2019-05-29T12:47:28.924Z,7.73
2019-05-29T12:50:14.016Z,8.30
2019-05-29T12:52:57.694Z,8.80
2019-05-29T12:55:41.025Z,9.40
2019-05-29T12:58:23.869Z,8.57
2019-05-29T13:01:07.085Z,8.07
2019-05-29T13:03:49.890Z,10.67
2019-05-29T13:06:32.702Z,8.07
2019-05-29T13:09:15.441Z,8.80
2019-05-29T13:11:58.643Z,8.27
2019-05-29T13:14:41.425Z,8.87
2019-05-29T13:17:24.628Z,8.30
2019-05-29T13:20:20.935Z,8.50
2019-05-29T13:22:55.513Z,7.50
2019-05-29T13:25:38.427Z,6.27
2019-05-29T13:28:21.340Z,8.50
2019-05-29T13:31:04.588Z,7.30
2019-05-29T13:33:48.123Z,6.50
2019-05-29T13:36:31.017Z,7.73
2019-05-29T13:39:14.465Z,7.83
2019-05-29T13:41:58.322Z,7.13
2019-05-29T13:44:42.089Z,6.17
2019-05-29T13:47:24.994Z,6.50
2019-05-29T13:50:12.071Z,5.73
2019-05-29T13:52:53.066Z,5.97
2019-05-29T13:55:36.305Z,5.63
2019-05-29T13:58:19.049Z,6.13
2019-05-29T14:01:02.453Z,7.13
2019-05-29T14:03:45.191Z,4.13
2019-05-29T14:06:28.132Z,4.40
2019-05-29T14:09:12.137Z,4.43
2019-05-29T14:11:54.949Z,4.17
2019-05-29T14:14:37.834Z,3.27
2019-05-29T14:17:21.141Z,2.83
2019-05-29T14:20:04.677Z,3.93
2019-05-29T14:22:47.602Z,3.87
2019-05-29T14:25:30.479Z,3.53
2019-05-29T14:28:13.567Z,3.43
2019-05-29T14:30:56.293Z,5.23
2019-05-29T14:33:39.533Z,4.03
2019-05-29T14:36:22.204Z,4.87
2019-05-29T14:39:06.163Z,4.33
2019-05-29T14:41:48.801Z,4.50
2019-05-29T14:44:31.728Z,4.80
2019-05-29T14:47:14.602Z,4.87
2019-05-29T14:49:58.437Z,5.27
2019-05-29T14:52:41.184Z,4.73
2019-05-29T14:55:24.228Z,4.97
2019-05-29T14:58:07.753Z,5.58
2019-05-29T15:00:51.661Z,4.70
2019-05-29T15:03:34.362Z,5.00
2019-05-29T15:06:18.635Z,4.90
2019-05-29T15:09:01.323Z,4.60
2019-05-29T15:11:44.722Z,6.13
2019-05-29T15:14:27.470Z,4.60
2019-05-29T15:17:10.990Z,4.20
2019-05-29T15:19:53.757Z,5.58
2019-05-29T15:22:36.820Z,4.50
2019-05-29T15:25:23.895Z,5.25
2019-05-29T15:28:04.413Z,5.10
2019-05-29T15:30:47.561Z,4.40
2019-05-29T15:33:30.788Z,5.85
2019-05-29T15:36:14.581Z,5.20
2019-05-29T15:39:00.195Z,4.75
2019-05-29T15:41:43.047Z,5.28
2019-05-29T15:44:25.974Z,5.25
2019-05-29T15:47:08.866Z,5.37
2019-05-29T15:49:52.802Z,6.92
2019-05-29T15:52:35.913Z,5.03
2019-05-29T15:55:29.687Z,5.65
2019-05-29T15:58:04.179Z,5.00
2019-05-29T16:00:47.546Z,4.35
2019-05-29T16:03:30.240Z,3.85
2019-05-29T16:06:13.886Z,4.80
2019-05-29T16:08:57.786Z,4.22
2019-05-29T16:11:41.146Z,4.17
2019-05-29T16:14:23.818Z,4.20
2019-05-29T16:17:06.889Z,4.87
2019-05-29T16:19:49.636Z,3.77
2019-05-29T16:22:32.510Z,4.30
2019-05-29T16:25:16.813Z,4.75
2019-05-29T16:28:00.275Z,5.00
2019-05-29T16:30:42.911Z,3.60
2019-05-29T16:33:26.029Z,3.80
2019-05-29T16:36:08.767Z,3.83
2019-05-29T16:38:52.443Z,4.15
2019-05-29T16:41:36.203Z,3.27
2019-05-29T16:44:24.253Z,3.55
2019-05-29T16:47:04.621Z,3.05
2019-05-29T16:49:47.651Z,2.65
2019-05-29T16:52:30.405Z,3.05
2019-05-29T16:55:14.917Z,2.65
2019-05-29T16:57:57.534Z,2.40
2019-05-29T17:00:40.619Z,1.82
2019-05-29T17:03:23.817Z,2.05
2019-05-29T17:06:07.439Z,1.90
2019-05-29T17:08:50.036Z,1.90
2019-05-29T17:11:33.281Z,1.67
2019-05-29T17:14:16.429Z,1.87
2019-05-29T17:16:59.797Z,1.90
2019-05-29T17:19:42.338Z,1.50
2019-05-29T17:22:25.402Z,1.75
2019-05-29T17:25:08.238Z,1.65
2019-05-29T17:27:51.300Z,1.82
2019-05-29T17:30:36.767Z,1.65
2019-05-29T17:33:21.051Z,1.80
2019-05-29T17:36:03.980Z,1.50
2019-05-29T17:38:47.046Z,2.00
2019-05-29T17:41:29.839Z,1.32
2019-05-29T17:44:13.053Z,1.60
2019-05-29T17:46:55.750Z,1.47
2019-05-29T17:49:39.099Z,1.05
2019-05-29T17:52:21.912Z,0.90
2019-05-29T17:55:05.153Z,0.98
2019-05-29T17:57:48.500Z,1.00
2019-05-29T18:00:32.583Z,1.62
2019-05-29T18:03:16.587Z,1.50
2019-05-29T18:06:00.021Z,0.93
2019-05-29T18:08:43.037Z,1.10
2019-05-29T18:11:27.562Z,1.02
2019-05-29T18:14:10.560Z,1.00
2019-05-29T18:16:54.001Z,1.20
2019-05-29T18:19:37.020Z,0.88
2019-05-29T18:22:20.146Z,1.25
2019-05-29T18:25:02.962Z,1.15
2019-05-29T18:27:46.125Z,1.00
2019-05-29T18:30:29.051Z,0.90
2019-05-29T18:33:11.913Z,0.93
2019-05-29T18:35:54.918Z,0.93
2019-05-29T18:38:38.267Z,1.32
2019-05-29T18:41:20.892Z,0.90
2019-05-29T18:44:03.952Z,0.80
2019-05-29T18:46:46.656Z,0.80
2019-05-29T18:49:29.998Z,0.98
2019-05-29T18:52:12.848Z,1.40
2019-05-29T19:45:24.594Z,0.88
2019-05-29T19:48:08.287Z,1.10
2019-05-29T19:50:51.280Z,0.90
2019-05-29T19:53:35.538Z,1.10
2019-05-29T19:56:18.945Z,0.90
2019-05-29T19:59:01.724Z,0.80
2019-05-29T20:01:44.772Z,1.20
2019-05-29T20:04:28.481Z,0.70
2019-05-29T20:07:11.406Z,0.80
2019-05-29T20:09:54.030Z,0.90
2019-05-29T20:12:38.062Z,0.88
2019-05-29T20:15:20.801Z,0.90
2019-05-29T20:18:03.606Z,0.60
2019-05-29T20:20:46.792Z,0.68
2019-05-29T20:23:30.520Z,0.82
2019-05-29T20:26:13.282Z,0.82
2019-05-29T20:28:56.346Z,0.70
2019-05-29T20:31:39.198Z,1.00
2019-05-29T20:34:22.117Z,0.90
2019-05-29T20:37:04.683Z,0.90
2019-05-29T20:39:47.639Z,0.88
2019-05-29T20:42:30.342Z,1.30
2019-05-29T20:45:13.346Z,0.80
2019-05-29T20:47:56.736Z,1.00
2019-05-29T20:50:39.449Z,1.00
2019-05-29T20:53:22.015Z,0.93
2019-05-29T20:56:05.064Z,0.70
2019-05-29T20:58:47.728Z,0.78
2019-05-29T21:01:32.115Z,0.70
2019-05-29T21:04:14.894Z,0.93
2019-05-29T21:06:58.006Z,0.80
2019-05-29T21:09:41.135Z,0.98
2019-05-29T21:12:24.364Z,1.10
2019-05-29T21:15:07.389Z,0.88
2019-05-29T21:17:50.366Z,0.93
2019-05-29T21:20:34.110Z,0.68
2019-05-29T21:23:16.898Z,0.78
2019-05-29T21:26:00.134Z,0.90
2019-05-29T21:28:46.800Z,0.90
2019-05-29T21:31:27.104Z,0.93
2019-05-29T21:34:10.175Z,0.80
2019-05-29T21:36:52.896Z,0.90
2019-05-29T21:39:36.301Z,1.12
2019-05-29T21:42:19.062Z,1.17
2019-05-29T21:45:02.027Z,1.10
2019-05-29T21:47:45.109Z,1.15
2019-05-29T21:50:28.564Z,1.40
2019-05-29T21:53:12.239Z,0.80
2019-05-29T21:55:55.250Z,0.85
2019-05-29T21:58:39.483Z,0.93
2019-05-29T22:01:22.643Z,0.80
2019-05-29T22:04:06.239Z,0.98
2019-05-29T22:06:48.997Z,1.20
2019-05-29T22:09:31.673Z,1.05
2019-05-29T22:12:14.947Z,1.02
2019-05-29T22:14:58.865Z,1.37
2019-05-29T22:17:42.281Z,1.25
2019-05-29T22:20:24.865Z,0.90
2019-05-29T22:23:07.903Z,1.50
2019-05-29T22:25:51.203Z,1.70
2019-05-29T22:28:34.376Z,2.20
2019-05-29T22:31:17.629Z,2.47
2019-05-29T22:34:01.958Z,2.08
2019-05-29T22:36:44.698Z,1.75
2019-05-29T22:39:27.583Z,2.00
2019-05-29T22:42:10.324Z,2.37
2019-05-29T22:44:53.595Z,3.30
2019-05-29T22:47:36.183Z,2.70
2019-05-29T22:50:18.913Z,2.77
2019-05-29T22:53:02.136Z,4.03
2019-05-29T22:55:44.921Z,3.33
2019-05-29T22:58:27.380Z,3.87
2019-05-29T23:01:10.265Z,3.67
2019-05-29T23:03:54.125Z,4.12
2019-05-29T23:06:37.156Z,4.17
2019-05-29T23:09:19.870Z,4.35
2019-05-29T23:12:02.918Z,3.60
2019-05-29T23:14:45.488Z,4.10
2019-05-29T23:17:28.427Z,4.40
2019-05-29T23:20:11.682Z,4.05
2019-05-29T23:22:54.728Z,4.40
2019-05-29T23:25:37.481Z,4.50
2019-05-29T23:28:20.556Z,4.50
2019-05-29T23:31:03.233Z,4.30
2019-05-29T23:33:46.012Z,4.00
2019-05-29T23:36:29.098Z,4.70
2019-05-29T23:39:12.476Z,4.50
2019-05-29T23:41:55.251Z,4.58
2019-05-29T23:44:38.107Z,4.00
2019-05-29T23:47:20.759Z,4.50
2019-05-29T23:50:04.475Z,5.33
2019-05-29T23:52:47.100Z,5.67
2019-05-29T23:55:30.366Z,5.15
2019-05-29T23:58:12.875Z,4.65
